Weather observations for the past three days for
Elkhart, Elkhart-Morton County Airport
| Date | Time (cdt) | Wind (mph) | Vis. (mi.) | Weather | Sky Cond. | Temperature (ºF) | Relative Humidity | Wind Chill (°F) | Heat Index (°F) | Pressure | Precipitation (in) | ||||||
|---|---|---|---|---|---|---|---|---|---|---|---|---|---|---|---|---|---|
| Air | Dwpt | 6 hour | altimeter (in) | sea level (mb) | 1 hr | 3 hr | 6 hr | ||||||||||
| Max. | Min. | ||||||||||||||||
| 08 | 04:55 | SW 16 | 10.00 | Fair | CLR | 58.8 | 31.1 | 35% | 29.88 | 0.0 | |||||||
| 08 | 04:35 | SW 18 | 10.00 | Fair | CLR | 58.1 | 32.4 | 38% | 29.88 | 0.0 | |||||||
| 08 | 04:15 | SW 16 | 10.00 | Fair | CLR | 57.2 | 33.6 | 41% | 29.87 | 0.0 | |||||||
| 08 | 03:55 | SW 17 | 10.00 | Fair | CLR | 55.2 | 34.7 | 46% | 29.88 | 0.0 | |||||||
| 08 | 03:35 | W 16 | 10.00 | Partly Cloudy | SCT120 | 55 | 34.3 | 46% | 29.88 | 0.0 | |||||||
| 08 | 03:15 | SW 17 | 10.00 | Partly Cloudy | SCT120 | 57.2 | 32.4 | 39% | 29.88 | 0.0 | |||||||
| 08 | 02:55 | SW 18 | 10.00 | Fair | CLR | 57.4 | 32.4 | 39% | 29.88 | 0.0 | |||||||
| 08 | 02:35 | SW 17 | 10.00 | Fair | CLR | 54.9 | 33.4 | 44% | 29.89 | 0.0 | |||||||
| 08 | 02:15 | SW 15 | 10.00 | Fair | CLR | 55 | 33.1 | 44% | 29.9 | 0.0 | |||||||
| 08 | 01:55 | SW 15 | 10.00 | Fair | CLR | 56.3 | 33.4 | 42% | 29.91 | 0.0 | |||||||
| 08 | 01:35 | SW 15 | 10.00 | Fair | CLR | 55.4 | 33.8 | 44% | 29.92 | 0.0 | |||||||
| 08 | 01:15 | SW 14 | 10.00 | Fair | CLR | 54.5 | 34 | 46% | 29.92 | 0.0 | |||||||
| 08 | 00:55 | SW 14 | 10.00 | Fair | CLR | 53.2 | 34.5 | 76.3 | 51.3 | 49% | 29.92 | 0.0 | |||||
| 08 | 00:35 | SW 14 | 10.00 | Fair | CLR | 51.8 | 35.4 | 54% | 29.94 | 0.0 | |||||||
| 08 | 00:15 | SW 12 | 10.00 | Fair | CLR | 52 | 35.1 | 53% | 29.94 | 0.0 | |||||||
| 07 | 23:55 | SW 13 | 10.00 | Fair | CLR | 52.7 | 35.4 | 52% | 29.94 | 0.0 | |||||||
| 07 | 23:35 | SW 13 | 10.00 | Fair | CLR | 52.3 | 36 | 54% | 29.94 | 0.0 | |||||||
| 07 | 23:15 | SW 12 | 10.00 | Fair | CLR | 52.5 | 36.7 | 55% | 29.95 | 0.0 | |||||||
| 07 | 22:55 | S 12 | 10.00 | Fair | CLR | 54 | 37.2 | 53% | 29.95 | 0.0 | |||||||
| 07 | 22:35 | S 9 | 10.00 | Fair | CLR | 53.1 | 36.9 | 54% | 29.95 | 0.0 | |||||||
| 07 | 22:15 | S 12 | 10.00 | Fair | CLR | 56.3 | 35.2 | 45% | 29.95 | 0.0 | |||||||
| 07 | 21:55 | S 12 | 10.00 | Fair | CLR | 57.2 | 35.2 | 44% | 29.94 | 0.0 | |||||||
| 07 | 21:35 | S 12 | 10.00 | Fair | CLR | 58.8 | 35.8 | 42% | 29.93 | 0.0 | |||||||
| 07 | 21:15 | S 12 | 10.00 | Fair | CLR | 59 | 37.6 | 45% | 29.93 | 0.0 | |||||||
| 07 | 20:55 | S 12 | 10.00 | Fair | CLR | 61.3 | 37.2 | 41% | 29.92 | 0.0 | |||||||
| 07 | 20:35 | S 13 | 10.00 | Fair | CLR | 64.4 | 37.6 | 37% | 29.92 | 0.0 | |||||||
| 07 | 20:15 | S 6 | 10.00 | Fair | CLR | 67.8 | 33.4 | 28% | 29.92 | 0.0 | |||||||
| 07 | 19:55 | S 7 | 10.00 | Fair | CLR | 72.5 | 24.3 | 16% | 29.92 | 0.0 | |||||||
| 07 | 19:35 | S 7 | 10.00 | Fair | CLR | 74.1 | 22.3 | 14% | 29.91 | 0.0 | |||||||
| 07 | 19:15 | SW 8 | 10.00 | Fair | CLR | 75.2 | 21.2 | 13% | 75 | 29.91 | 0.0 | ||||||
| 07 | 18:55 | S 8 | 10.00 | Fair | CLR | 75.4 | 21 | 78.6 | 69.3 | 13% | 75 | 29.92 | 0.0 | ||||
| 07 | 18:15 | S 5 | 10.00 | Fair | CLR | 75.9 | 19.8 | 12% | 75 | 29.92 | 0.0 | ||||||
| 07 | 17:55 | S 5 | 10.00 | Fair | CLR | 76.1 | 19.8 | 12% | 76 | 29.92 | 0.0 | ||||||
| 07 | 17:35 | SW 6 | 10.00 | Fair | CLR | 77.2 | 19.8 | 11% | 76 | 29.92 | 0.0 | ||||||
| 07 | 16:55 | SW 5 | 10.00 | Fair | CLR | 76.8 | 18.3 | 11% | 76 | 29.93 | 0.0 | ||||||
| 07 | 16:35 | SW 6 | 10.00 | Fair | CLR | 77.4 | 20.1 | 12% | 76 | 29.94 | 0.0 | ||||||
| 07 | 16:15 | NW 6 | 10.00 | Fair | CLR | 75.6 | 19 | 12% | 75 | 29.96 | 0.0 | ||||||
| 07 | 15:55 | Calm | 10.00 | Fair | CLR | 75 | 18.3 | 12% | 75 | 29.96 | 0.0 | ||||||
| 07 | 15:35 | SE 7 | 5.00 | Fair with Haze | CLR | 75.6 | 19.6 | 12% | 75 | 29.97 | 0.0 | ||||||
| 07 | 15:15 | W 9 | 10.00 | Fair | CLR | 75 | 19.8 | 12% | 75 | 29.98 | 0.0 | ||||||
| 07 | 14:55 | W 8 | 10.00 | Fair | CLR | 74.8 | 22.3 | 14% | 29.99 | 0.0 | |||||||
| 07 | 14:35 | W 9 | 10.00 | Fair | CLR | 74.3 | 21.7 | 14% | 30 | 0.0 | |||||||
| 07 | 14:15 | W 8 | 10.00 | Fair | CLR | 72.7 | 22.1 | 15% | 30.01 | 0.0 | |||||||
| 07 | 13:55 | N 6 | 10.00 | Fair | CLR | 72 | 19 | 13% | 30.02 | 0.0 | |||||||
| 07 | 13:35 | S 10 | 10.00 | Fair | CLR | 73.2 | 30 | 20% | 30.02 | 0.0 | |||||||
| 07 | 13:15 | SW 7 | 10.00 | Fair | CLR | 71.2 | 27.7 | 20% | 30.03 | 0.0 | |||||||
| 07 | 12:55 | SW 12 G 16 | 10.00 | Fair | CLR | 70.3 | 27.5 | 71.6 | 36.5 | 20% | 30.04 | 0.0 | |||||
| 07 | 12:35 | W 13 | 10.00 | Fair | CLR | 71.1 | 28.6 | 21% | 30.05 | 0.0 | |||||||
| 07 | 12:15 | SW 13 | 10.00 | Fair | CLR | 68.9 | 30.9 | 24% | 30.06 | 0.0 | |||||||
| 07 | 11:55 | W 15 G 22 | 10.00 | Fair | CLR | 67.5 | 31.3 | 26% | 30.06 | 0.0 | |||||||
| 07 | 11:35 | SW 14 | 10.00 | Fair | CLR | 67.1 | 34.7 | 30% | 30.07 | 0.0 | |||||||
| 07 | 11:15 | W 16 | 10.00 | Fair | CLR | 64.9 | 35.1 | 33% | 30.07 | 0.0 | |||||||
| 07 | 10:55 | W 17 | 10.00 | Fair | CLR | 63.3 | 37.6 | 39% | 30.08 | 0.0 | |||||||
| 07 | 10:35 | W 14 | 10.00 | Fair | CLR | 59.9 | 40.5 | 49% | 30.09 | 0.0 | |||||||
| 07 | 10:15 | W 13 | 10.00 | Fair | CLR | 57.2 | 41.9 | 57% | 30.09 | 0.0 | |||||||
| 07 | 09:55 | W 15 | 10.00 | Fair | CLR | 54 | 40.5 | 60% | 30.1 | 0.0 | |||||||
| 07 | 09:35 | W 13 | 10.00 | Fair | CLR | 51.3 | 39.2 | 64% | 30.1 | 0.0 | |||||||
| 07 | 09:15 | W 10 | 10.00 | Fair | CLR | 48.4 | 37.9 | 67% | 44 | 30.1 | 0.0 | ||||||
| 07 | 08:35 | W 13 | 10.00 | Fair | CLR | 44.4 | 35.8 | 72% | 39 | 30.11 | 0.0 | ||||||
| 07 | 08:15 | W 12 | 10.00 | Fair | CLR | 41.5 | 34.7 | 77% | 36 | 30.11 | 0.0 | ||||||
| 07 | 07:55 | W 15 | 10.00 | Fair | CLR | 38.8 | 32.7 | 79% | 31 | 30.11 | 0.0 | ||||||
| 07 | 07:35 | W 15 | 10.00 | Fair | CLR | 37.2 | 32 | 81% | 29 | 30.11 | 0.0 | ||||||
| 07 | 07:15 | W 15 | 10.00 | Fair | CLR | 36.7 | 31.8 | 83% | 28 | 30.11 | 0.0 | ||||||
| 07 | 06:55 | W 14 | 10.00 | Fair | CLR | 36.5 | 31.8 | 40.5 | 35.1 | 83% | 28 | 30.11 | 0.0 | ||||
| 07 | 06:35 | W 14 | 10.00 | Fair | CLR | 36 | 32.2 | 86% | 28 | 30.11 | 0.0 | ||||||
| 07 | 06:15 | W 13 | 10.00 | Fair | CLR | 35.2 | 32.2 | 89% | 27 | 30.12 | 0.0 | ||||||
| 07 | 05:55 | SW 14 | 10.00 | Fair | CLR | 36 | 32.5 | 87% | 28 | 30.12 | 0.0 | ||||||
| 07 | 05:35 | SW 16 | 10.00 | Fair | CLR | 36.1 | 33.3 | 89% | 27 | 30.12 | 0.0 | ||||||
| 07 | 05:15 | SW 17 | 10.00 | Fair | CLR | 35.6 | 33.3 | 91% | 26 | 30.12 | 0.0 | ||||||
| 07 | 04:55 | SW 14 | 10.00 | Fair | CLR | 35.4 | 33.3 | 92% | 27 | 30.14 | 0.0 | ||||||
| 07 | 04:35 | W 14 | 10.00 | Fair | CLR | 35.2 | 33.4 | 93% | 27 | 30.14 | 0.0 | ||||||
| 07 | 04:15 | SW 13 | 10.00 | Fair | CLR | 35.6 | 34 | 94% | 28 | 30.14 | 0.0 | ||||||
| 07 | 03:55 | SW 13 | 10.00 | Fair | CLR | 36.1 | 34.5 | 94% | 28 | 30.15 | 0.0 | ||||||
| 07 | 03:35 | SW 12 | 10.00 | Fair | CLR | 36.5 | 34.9 | 94% | 29 | 30.16 | 0.0 | ||||||
| 07 | 03:15 | SW 10 | 10.00 | Fair | CLR | 36.3 | 34.9 | 95% | 30 | 30.16 | 0.0 | ||||||
| 07 | 02:55 | SW 10 | 10.00 | Fair | CLR | 37 | 35.2 | 93% | 30 | 30.17 | 0.0 | ||||||
| 07 | 02:35 | SW 9 | 10.00 | Fair | CLR | 36.9 | 34.7 | 92% | 31 | 30.18 | 0.0 | ||||||
| 07 | 02:15 | SW 9 | 10.00 | Fair | CLR | 37 | 34.9 | 92% | 31 | 30.18 | 0.0 | ||||||
| 07 | 01:55 | SW 7 | 10.00 | Fair | CLR | 35.8 | 34.3 | 95% | 31 | 30.19 | 0.0 | ||||||
| 07 | 01:35 | SW 7 | 10.00 | Fair | CLR | 37.6 | 35.8 | 93% | 33 | 30.2 | 0.0 | ||||||
| 07 | 01:15 | SW 6 | 10.00 | Partly Cloudy | SCT021 | 38.7 | 36.7 | 93% | 35 | 30.2 | 0.0 | ||||||
| 07 | 00:55 | SW 5 | 10.00 | Overcast | OVC021 | 40.5 | 38.3 | 42.8 | 39.2 | 92% | 38 | 30.2 | 0.0 | 0.14 | |||
| 07 | 00:35 | W 6 | 10.00 | Overcast | OVC021 | 40.6 | 38.1 | 91% | 37 | 30.2 | 0.0 | ||||||
| 07 | 00:15 | Calm | 10.00 | Overcast | OVC023 | 40.3 | 37.2 | 89% | 30.2 | 0.0 | |||||||
| 06 | 23:35 | W 6 | 10.00 | Overcast | SCT013 SCT022 OVC029 | 40.1 | 37.4 | 90% | 37 | 30.2 | 0.0 | ||||||
| 06 | 23:15 | W 7 | 10.00 | Overcast | BKN013 OVC029 | 40.1 | 37.4 | 90% | 36 | 30.21 | 0.0 | ||||||
| 06 | 22:55 | W 7 | 10.00 | Overcast | SCT013 OVC027 | 39.7 | 37.4 | 91% | 35 | 30.21 | 0.0 | ||||||
| 06 | 22:35 | SW 5 | 10.00 | Overcast | OVC027 | 39.6 | 37.2 | 91% | 37 | 30.2 | 0.0 | ||||||
| 06 | 22:15 | W 6 | 10.00 | Overcast | OVC027 | 39.6 | 37 | 91% | 36 | 30.2 | 0.0 | ||||||
| 06 | 21:55 | SW 6 | 10.00 | Overcast | OVC029 | 39.6 | 37.4 | 92% | 36 | 30.2 | 0.0 | 0.14 | |||||
| 06 | 21:35 | SW 6 | 10.00 | Overcast | OVC033 | 39.2 | 37 | 92% | 36 | 30.19 | 0.0 | ||||||
| 06 | 21:15 | SW 5 | 10.00 | Mostly Cloudy | SCT035 BKN050 BKN110 | 39.4 | 37.4 | 93% | 37 | 30.19 | 0.0 | ||||||
| 06 | 20:55 | SW 3 | 10.00 | Light Rain | SCT029 SCT045 OVC050 | 39.7 | 36.9 | 89% | 30.18 | 0.0 | 0.04 | ||||||
| 06 | 20:35 | W 5 | 10.00 | Light Rain | SCT026 BKN042 OVC050 | 39.7 | 36.5 | 88% | 37 | 30.18 | 0.0 | 0.04 | |||||
| 06 | 20:15 | Calm | 3.50 | Rain Fog/Mist | BKN024 BKN032 OVC040 | 40.5 | 38.5 | 93% | 30.15 | 0.0 | 0.04 | ||||||
| 06 | 19:55 | N 3 | 5.00 | Rain Fog/Mist | SCT017 OVC024 | 40.1 | 37.9 | 92% | 30.16 | 0.0 | 0.09 | ||||||
| 06 | 19:35 | N 8 | 4.00 | Light Rain Fog/Mist | BKN019 OVC024 | 40.8 | 37.9 | 90% | 36 | 30.16 | 0.0 | 0.05 | |||||
| 06 | 19:15 | NW 9 | 5.00 | Light Rain Fog/Mist | BKN020 OVC027 | 42.1 | 37.4 | 84% | 37 | 30.16 | 0.0 | 0.02 | |||||
| 06 | 18:35 | NE 6 | 10.00 | Overcast | OVC026 | 44.1 | 36 | 73% | 41 | 30.13 | 0.0 | ||||||
| 06 | 18:15 | NE 3 | 10.00 | Overcast | OVC024 | 44.6 | 35.8 | 71% | 30.12 | 0.0 | |||||||
| 06 | 17:55 | NE 7 | 10.00 | Overcast | OVC022 | 45.3 | 36.7 | 72% | 42 | 30.12 | 0.0 | ||||||
| 06 | 17:15 | E 8 | 10.00 | Overcast | BKN019 OVC023 | 44.8 | 36.7 | 73% | 41 | 30.12 | 0.0 | ||||||
| 06 | 16:55 | E 7 | 10.00 | Overcast | BKN020 OVC024 | 44.8 | 36.9 | 74% | 41 | 30.12 | 0.0 | ||||||
| 06 | 16:35 | E 8 | 10.00 | Overcast | OVC018 | 44.2 | 36.9 | 75% | 40 | 30.12 | 0.0 | ||||||
| 06 | 16:15 | E 8 | 10.00 | Overcast | OVC018 | 43.7 | 37 | 77% | 40 | 30.12 | 0.0 | ||||||
| 06 | 15:55 | SE 8 | 10.00 | Overcast | OVC018 | 43.2 | 36.5 | 77% | 39 | 30.13 | 0.0 | ||||||
| 06 | 15:35 | SE 9 | 10.00 | Overcast | OVC018 | 42.8 | 37.2 | 81% | 38 | 30.13 | 0.0 | ||||||
| 06 | 15:15 | SE 10 | 10.00 | Overcast | OVC020 | 42.1 | 37.2 | 83% | 37 | 30.13 | 0.0 | ||||||
| 06 | 14:55 | E 12 | 10.00 | Overcast | SCT008 OVC020 | 41.9 | 37.9 | 86% | 36 | 30.12 | 0.0 | ||||||
| 06 | 14:35 | E 12 | 10.00 | Overcast | SCT008 SCT012 OVC020 | 41 | 38.5 | 91% | 35 | 30.12 | 0.0 | ||||||
| 06 | 14:15 | E 12 | 10.00 | Overcast | BKN008 BKN014 OVC020 | 40.6 | 38.7 | 93% | 34 | 30.13 | 0.0 | ||||||
| 06 | 13:55 | E 12 | 10.00 | Light Drizzle | SCT006 OVC017 | 40.5 | 38.3 | 92% | 34 | 30.13 | 0.0 | ||||||
| 06 | 13:35 | E 10 | 10.00 | Light Drizzle | BKN006 OVC014 | 40.5 | 38.7 | 93% | 35 | 30.14 | 0.0 | ||||||
| 06 | 13:15 | E 13 | 5.00 | Fog/Mist | SCT008 BKN014 OVC020 | 40.6 | 38.7 | 93% | 34 | 30.14 | 0.0 | ||||||
| 06 | 12:55 | E 15 | 10.00 | Overcast | OVC014 | 40.5 | 37.2 | 40.6 | 37.2 | 88% | 33 | 30.14 | 0.0 | 0.03 | |||
| 06 | 12:35 | E 13 | 10.00 | Overcast | BKN012 OVC016 | 40.3 | 37.4 | 90% | 34 | 30.14 | 0.0 | ||||||
| 06 | 12:15 | E 14 | 10.00 | Overcast | OVC013 | 39.9 | 37.2 | 90% | 33 | 30.14 | 0.0 | ||||||
| 06 | 11:55 | E 14 | 10.00 | Overcast | SCT009 OVC013 | 39.7 | 37.2 | 91% | 33 | 30.13 | 0.0 | ||||||
| 06 | 11:35 | E 13 | 10.00 | Overcast | BKN007 OVC013 | 39.6 | 37.2 | 91% | 33 | 30.12 | 0.0 | ||||||
| 06 | 11:15 | E 12 | 10.00 | Overcast | OVC007 | 39.4 | 37.8 | 94% | 33 | 30.12 | 0.0 | ||||||
| 06 | 10:55 | E 16 | 10.00 | Overcast | OVC007 | 38.8 | 37.4 | 95% | 31 | 30.11 | 0.0 | 0.01 | |||||
| 06 | 10:35 | E 16 | 5.00 | Fog/Mist | OVC005 | 38.5 | 37.6 | 97% | 30 | 30.1 | 0.0 | 0.01 | |||||
| 06 | 10:15 | E 14 | 4.00 | Fog/Mist | OVC005 | 39 | 38.1 | 97% | 32 | 30.09 | 0.0 | 0.01 | |||||
| 06 | 09:55 | E 15 | 4.00 | Light Drizzle Fog/Mist | OVC003 | 38.3 | 37.4 | 97% | 30 | 30.1 | 0.0 | 0.02 | |||||
| 06 | 09:35 | E 15 | 4.00 | Light Drizzle Fog/Mist | OVC003 | 38.1 | 37.2 | 97% | 30 | 30.1 | 0.0 | ||||||
| 06 | 09:15 | E 14 | 3.00 | Drizzle Fog/Mist | OVC003 | 37.9 | 37.2 | 97% | 30 | 30.1 | 0.0 | ||||||
| 06 | 08:55 | E 14 | 5.00 | Light Drizzle Fog/Mist | OVC003 | 37.8 | 37 | 97% | 30 | 30.1 | 0.0 | 0.01 | |||||
| 06 | 08:35 | SE 13 | 10.00 | Light Drizzle | OVC003 | 37.8 | 37 | 97% | 30 | 30.09 | 0.0 | 0.01 | |||||
| 06 | 08:15 | SE 16 | 7.00 | Drizzle | OVC003 | 37.6 | 36.9 | 97% | 29 | 30.09 | 0.0 | ||||||
| 06 | 07:55 | SE 13 | 5.00 | Light Drizzle Fog/Mist | BKN003 OVC007 | 37.4 | 36.9 | 98% | 30 | 30.09 | 0.0 | 0.01 | |||||
| 06 | 07:35 | SE 16 | 7.00 | Fog/Mist | BKN003 OVC008 | 37.4 | 36.7 | 97% | 29 | 30.08 | 0.0 | 0.01 | |||||
| 06 | 07:15 | E 14 | 3.00 | Light Drizzle Fog/Mist | OVC003 | 37.6 | 36.9 | 97% | 30 | 30.06 | 0.0 | 0.01 | |||||
| 06 | 06:55 | SE 14 | 4.00 | Fog/Mist | BKN003 OVC007 | 37.2 | 36.5 | 41.4 | 37.2 | 97% | 29 | 30.06 | 0.0 | ||||
| 06 | 06:35 | E 15 | 5.00 | Light Drizzle Fog/Mist | OVC003 | 37.9 | 37 | 97% | 30 | 30.05 | 0.0 | ||||||
| 06 | 06:15 | E 13 | 3.50 | Light Drizzle Fog/Mist | OVC003 | 37.9 | 37 | 97% | 31 | 30.04 | 0.0 | ||||||
| 06 | 05:55 | E 12 | 2.50 | Light Drizzle Fog/Mist | OVC003 | 37.9 | 37 | 97% | 31 | 30.04 | 0.0 | ||||||
| 06 | 05:35 | E 12 | 2.50 | Light Drizzle Fog/Mist | OVC003 | 37.9 | 36.9 | 96% | 31 | 30.03 | 0.0 | ||||||
| 06 | 05:15 | E 12 | 3.00 | Light Drizzle Fog/Mist | OVC003 | 37.9 | 36.7 | 95% | 31 | 30.03 | 0.0 | ||||||
| 06 | 04:55 | E 15 | 5.00 | Light Drizzle Fog/Mist | OVC005 | 38.5 | 36.5 | 93% | 31 | 30.02 | 0.0 | ||||||
| 06 | 04:35 | E 13 | 10.00 | Overcast | OVC007 | 39.2 | 36.3 | 89% | 32 | 30.02 | 0.0 | ||||||
| 06 | 04:15 | E 12 | 10.00 | Overcast | OVC007 | 39.4 | 36 | 88% | 33 | 30.01 | 0.0 | ||||||
| 06 | 03:55 | E 10 | 10.00 | Overcast | OVC009 | 39.4 | 35.4 | 86% | 33 | 30.02 | 0.0 | ||||||
| 06 | 03:35 | E 13 | 10.00 | Overcast | OVC009 | 39.6 | 35.2 | 85% | 33 | 30.01 | 0.0 | ||||||
| 06 | 03:15 | E 15 | 10.00 | Overcast | OVC009 | 39.6 | 35.2 | 85% | 32 | 30.01 | 0.0 | ||||||
| 06 | 02:55 | E 16 | 10.00 | Overcast | OVC011 | 39.7 | 34.9 | 83% | 32 | 30.01 | 0.0 | ||||||
| 06 | 02:35 | E 15 G 18 | 10.00 | Overcast | OVC011 | 40.1 | 34.7 | 81% | 33 | 30.02 | 0.0 | ||||||
| 06 | 02:15 | E 14 | 10.00 | Overcast | OVC011 | 40.5 | 35.1 | 81% | 33 | 30.03 | 0.0 | ||||||
| 06 | 01:55 | E 15 | 10.00 | Overcast | BKN013 OVC018 | 40.8 | 35.4 | 81% | 34 | 30.03 | 0.0 | ||||||
| 06 | 01:35 | E 17 | 10.00 | Overcast | SCT013 OVC018 | 41 | 35.4 | 81% | 33 | 30.02 | 0.0 | ||||||
| 06 | 01:15 | E 15 | 10.00 | Overcast | OVC018 | 41.2 | 35.4 | 80% | 34 | 30.03 | 0.0 | ||||||
| 06 | 00:55 | NE 16 | 10.00 | Overcast | OVC020 | 41.4 | 35.2 | 51.1 | 41.4 | 79% | 34 | 30.01 | 0.0 | ||||
| 06 | 00:35 | NE 15 | 10.00 | Overcast | OVC020 | 41.9 | 35.8 | 79% | 35 | 30.01 | 0.0 | ||||||
| 06 | 00:15 | NE 16 | 10.00 | Light Rain | OVC022 | 41.7 | 36.1 | 81% | 34 | 29.99 | 0.0 | ||||||
| 05 | 23:55 | E 15 | 10.00 | Light Rain | OVC022 | 42.3 | 36.1 | 79% | 35 | 29.99 | 0.0 | ||||||
| 05 | 23:35 | NE 15 | 10.00 | Light Rain | OVC026 | 43.5 | 34.9 | 72% | 37 | 29.99 | 0.0 | ||||||
| 05 | 23:15 | E 14 | 10.00 | Overcast | OVC028 | 43.9 | 35.1 | 71% | 38 | 29.98 | 0.0 | ||||||
| 05 | 22:55 | NE 14 | 10.00 | Overcast | OVC026 | 44.2 | 35.1 | 70% | 38 | 29.98 | 0.0 | ||||||
| 05 | 22:35 | NE 13 | 10.00 | Overcast | OVC026 | 45 | 35.6 | 70% | 39 | 29.99 | 0.0 | ||||||
| 05 | 22:15 | E 14 | 10.00 | Overcast | OVC029 | 46.6 | 36.1 | 67% | 41 | 29.96 | 0.0 | ||||||
| 05 | 21:55 | E 9 | 10.00 | Overcast | OVC031 | 47.1 | 37.8 | 70% | 43 | 29.95 | 0.0 | ||||||
| 05 | 21:35 | E 8 | 10.00 | Overcast | OVC033 | 47.3 | 38.5 | 72% | 44 | 29.93 | 0.0 | ||||||
| 05 | 21:15 | E 7 | 10.00 | Overcast | OVC035 | 47.3 | 37.9 | 70% | 44 | 29.93 | 0.0 | ||||||
| 05 | 20:55 | E 9 | 10.00 | Overcast | OVC035 | 47.3 | 37.8 | 70% | 43 | 29.92 | 0.0 | ||||||
| 05 | 20:35 | E 10 | 7.00 | Overcast | OVC035 | 47.5 | 37.6 | 69% | 43 | 29.91 | 0.0 | ||||||
| 05 | 20:15 | SE 13 | 10.00 | Light Rain | BKN035 BKN042 OVC070 | 48 | 36.7 | 65% | 43 | 29.9 | 0.0 | ||||||
| 05 | 19:55 | E 9 | 10.00 | Light Drizzle | OVC037 | 48.7 | 36.3 | 62% | 45 | 29.91 | 0.0 | ||||||
| 05 | 19:35 | E 12 | 10.00 | Light Rain | OVC037 | 49.6 | 35.8 | 59% | 46 | 29.91 | 0.0 | ||||||
| 05 | 19:15 | E 10 | 10.00 | Overcast | OVC037 | 50.5 | 34.9 | 55% | 29.92 | 0.0 | |||||||
| 05 | 18:55 | E 8 | 10.00 | Overcast | OVC037 | 50.9 | 34.2 | 54.7 | 50.5 | 53% | 29.92 | 0.0 | |||||
| 05 | 18:35 | E 10 | 10.00 | Overcast | OVC039 | 51.4 | 34.2 | 52% | 29.91 | 0.0 | |||||||
| 05 | 18:15 | E 14 | 10.00 | Overcast | OVC039 | 52 | 33.8 | 50% | 29.91 | 0.0 | |||||||
| 05 | 17:55 | E 12 | 10.00 | Overcast | OVC041 | 52.7 | 33.8 | 49% | 29.91 | 0.0 | |||||||
| 05 | 17:35 | E 12 | 10.00 | Overcast | OVC041 | 53.1 | 33.6 | 48% | 29.91 | 0.0 | |||||||
| 05 | 17:15 | E 10 | 10.00 | Overcast | OVC041 | 53.2 | 33.3 | 47% | 29.91 | 0.0 | |||||||
| 05 | 16:55 | NE 10 | 10.00 | Overcast | OVC041 | 53.1 | 33.3 | 47% | 29.92 | 0.0 | |||||||
| 05 | 16:35 | E 13 | 10.00 | Overcast | OVC041 | 53.4 | 33.3 | 47% | 29.91 | 0.0 | |||||||
| 05 | 16:15 | E 12 | 10.00 | Overcast | OVC039 | 53.2 | 33.3 | 47% | 29.91 | 0.0 | |||||||
| 05 | 15:55 | E 13 | 10.00 | Overcast | OVC039 | 54.3 | 33.4 | 45% | 29.91 | 0.0 | |||||||
| 05 | 15:35 | E 12 | 10.00 | Overcast | OVC039 | 53.6 | 33.6 | 47% | 29.92 | 0.0 | |||||||
| 05 | 15:15 | E 12 | 10.00 | Overcast | OVC037 | 53.4 | 33.4 | 47% | 29.92 | 0.0 | |||||||
| 05 | 14:55 | E 12 G 16 | 10.00 | Overcast | OVC037 | 54.3 | 34 | 46% | 29.94 | 0.0 | |||||||
| 05 | 14:35 | E 13 G 16 | 10.00 | Overcast | OVC037 | 53.2 | 34 | 48% | 29.94 | 0.0 | |||||||
| 05 | 14:15 | E 13 | 10.00 | Overcast | OVC037 | 53.6 | 34.2 | 48% | 29.94 | 0.0 | |||||||
| 05 | 13:55 | NE 12 | 10.00 | Overcast | BKN035 OVC044 | 52.2 | 34.2 | 50% | 29.94 | 0.0 | |||||||
| 05 | 13:35 | NE 12 | 10.00 | Overcast | BKN035 OVC044 | 51.4 | 34.2 | 52% | 29.95 | 0.0 | |||||||
| 05 | 13:15 | NE 12 G 17 | 10.00 | Overcast | SCT033 OVC044 | 51.4 | 34 | 51% | 29.96 | 0.0 | |||||||
| 05 | 12:55 | NE 14 | 10.00 | Overcast | BKN033 OVC044 | 51.6 | 34.2 | 52 | 48.6 | 51% | 29.95 | 0.0 | |||||
| 05 | 12:35 | NE 12 | 10.00 | Overcast | OVC031 | 50.9 | 34.3 | 53% | 29.96 | 0.0 | |||||||
| 05 | 12:15 | NE 14 | 10.00 | Overcast | OVC031 | 50.7 | 34.2 | 53% | 29.96 | 0.0 | |||||||
| 05 | 11:55 | NE 17 | 10.00 | Overcast | OVC031 | 50.4 | 34.2 | 54% | 29.96 | 0.0 | |||||||
| 05 | 11:35 | NE 14 | 10.00 | Overcast | OVC031 | 49.8 | 34.5 | 56% | 45 | 29.96 | 0.0 | ||||||
| 05 | 11:15 | NE 15 G 20 | 10.00 | Overcast | OVC031 | 49.6 | 34.3 | 56% | 45 | 29.96 | 0.0 | ||||||
| 05 | 10:55 | NE 17 | 10.00 | Overcast | BKN031 OVC041 | 48.9 | 33.8 | 56% | 43 | 29.97 | 0.0 | ||||||
| 05 | 10:35 | NE 21 | 10.00 | Overcast and Breezy | BKN029 OVC041 | 49.1 | 34 | 56% | 43 | 29.96 | 0.0 | ||||||
| 05 | 10:15 | NE 20 G 26 | 10.00 | Overcast | BKN029 OVC041 | 49.1 | 33.8 | 56% | 43 | 29.95 | 0.0 | ||||||
| 05 | 09:55 | NE 22 | 10.00 | Overcast and Breezy | SCT029 OVC041 | 49.3 | 33.3 | 54% | 43 | 29.95 | 0.0 | ||||||
| 05 | 09:35 | N 20 G 26 | 10.00 | Overcast | OVC041 | 49.5 | 33.1 | 53% | 43 | 29.95 | 0.0 | ||||||
| 05 | 09:15 | NE 20 | 10.00 | Overcast | OVC043 | 49.5 | 32.9 | 53% | 43 | 29.94 | 0.0 | ||||||
| 05 | 08:55 | NE 18 G 25 | 10.00 | Overcast | OVC043 | 49.5 | 33.8 | 55% | 44 | 29.94 | 0.0 | ||||||
| 05 | 08:35 | NE 17 | 10.00 | Overcast | OVC043 | 49.3 | 33.6 | 55% | 44 | 29.94 | 0.0 | ||||||
| 05 | 08:15 | NE 20 G 25 | 10.00 | Overcast | BKN045 OVC050 | 49.5 | 33.4 | 54% | 43 | 29.92 | 0.0 | ||||||
| 05 | 07:55 | NE 17 | 10.00 | Overcast | BKN049 OVC055 | 48.7 | 33.8 | 56% | 43 | 29.9 | 0.0 | ||||||
| 05 | 07:35 | NE 18 | 10.00 | Overcast | OVC046 | 48.7 | 33.6 | 56% | 43 | 29.89 | 0.0 | ||||||
| 05 | 06:55 | NE 21 | 10.00 | Overcast and Breezy | OVC037 | 49.1 | 33.4 | 63.1 | 49.1 | 55% | 43 | 29.87 | 0.0 | ||||
| 05 | 06:35 | NE 20 | 10.00 | Overcast | OVC035 | 49.6 | 33.3 | 53% | 44 | 29.87 | 0.0 | ||||||
| 05 | 06:15 | NE 22 G 30 | 10.00 | Overcast and Breezy | OVC035 | 50 | 32.9 | 52% | 44 | 29.85 | 0.0 | ||||||
| 05 | 05:55 | NE 18 G 30 | 10.00 | Overcast | OVC031 | 50 | 32.9 | 52% | 44 | 29.83 | 0.0 | ||||||
| 05 | 05:35 | NE 25 G 30 | 10.00 | Overcast and Breezy | OVC031 | 49.8 | 33.1 | 53% | 43 | 29.81 | 0.0 | ||||||
| Date | Time (cdt) | Wind (mph) | Vis. (mi.) | Weather | Sky Cond. | Air | Dwpt | Max. | Min. | Relative Humidity | Wind Chill (°F) | Heat Index (°F) | altimeter (in) | sea level (mb) | 1 hr | 3 hr | 6 hr |
| 6 hour | |||||||||||||||||
| Temperature (ºF) | Pressure | Precipitation (in) | |||||||||||||||